sensor_id;sensor_type;location;lat;lon;timestamp;pressure;altitude;pressure_sealevel;temperature;humidity
9740;BME280;4909;42.680;26.324;2023-11-21T00:00:58;98390.41;;;11.42;73.58
9740;BME280;4909;42.680;26.324;2023-11-21T00:03:26;98391.88;;;11.30;73.61
9740;BME280;4909;42.680;26.324;2023-11-21T00:05:54;98391.81;;;11.31;73.51
9740;BME280;4909;42.680;26.324;2023-11-21T00:08:22;98393.59;;;11.14;73.72
9740;BME280;4909;42.680;26.324;2023-11-21T00:10:49;98392.81;;;11.12;74.03
9740;BME280;4909;42.680;26.324;2023-11-21T00:13:16;98390.78;;;11.17;74.01
9740;BME280;4909;42.680;26.324;2023-11-21T00:15:43;98388.28;;;10.97;74.77
9740;BME280;4909;42.680;26.324;2023-11-21T00:18:10;98401.72;;;10.94;75.03
9740;BME280;4909;42.680;26.324;2023-11-21T00:20:37;98365.06;;;10.47;76.39
9740;BME280;4909;42.680;26.324;2023-11-21T00:23:04;98407.81;;;10.41;77.54
9740;BME280;4909;42.680;26.324;2023-11-21T00:25:32;98407.59;;;10.64;77.20
9740;BME280;4909;42.680;26.324;2023-11-21T00:27:59;98330.09;;;10.39;75.54
9740;BME280;4909;42.680;26.324;2023-11-21T00:30:27;98408.72;;;10.95;75.21
9740;BME280;4909;42.680;26.324;2023-11-21T00:32:54;98417.19;;;11.03;75.54
9740;BME280;4909;42.680;26.324;2023-11-21T00:35:21;98410.16;;;11.02;75.19
9740;BME280;4909;42.680;26.324;2023-11-21T00:37:48;98403.75;;;11.06;74.78
9740;BME280;4909;42.680;26.324;2023-11-21T00:40:15;98400.09;;;10.72;75.87
9740;BME280;4909;42.680;26.324;2023-11-21T00:42:46;98385.16;;;10.53;76.13
9740;BME280;4909;42.680;26.324;2023-11-21T00:45:13;98415.03;;;10.56;76.95
9740;BME280;4909;42.680;26.324;2023-11-21T00:47:40;98415.41;;;10.49;78.13
9740;BME280;4909;42.680;26.324;2023-11-21T00:50:08;98419.00;;;10.29;78.33
9740;BME280;4909;42.680;26.324;2023-11-21T00:52:35;98424.75;;;10.20;79.07
9740;BME280;4909;42.680;26.324;2023-11-21T00:55:02;98426.69;;;10.35;78.27
9740;BME280;4909;42.680;26.324;2023-11-21T00:57:29;98395.28;;;10.26;78.02
9740;BME280;4909;42.680;26.324;2023-11-21T00:59:57;98415.63;;;10.44;77.93
9740;BME280;4909;42.680;26.324;2023-11-21T01:02:24;98367.59;;;10.31;77.62
9740;BME280;4909;42.680;26.324;2023-11-21T01:04:51;98405.59;;;10.32;78.05
9740;BME280;4909;42.680;26.324;2023-11-21T01:07:18;98417.06;;;10.32;78.30
9740;BME280;4909;42.680;26.324;2023-11-21T01:09:46;98409.97;;;10.33;79.21
9740;BME280;4909;42.680;26.324;2023-11-21T01:12:13;98413.00;;;10.25;79.11
9740;BME280;4909;42.680;26.324;2023-11-21T01:14:40;98409.03;;;10.34;79.32
9740;BME280;4909;42.680;26.324;2023-11-21T01:17:08;98359.38;;;10.19;78.49
9740;BME280;4909;42.680;26.324;2023-11-21T01:19:35;98374.06;;;10.26;78.43
9740;BME280;4909;42.680;26.324;2023-11-21T01:22:03;98414.72;;;10.45;78.30
9740;BME280;4909;42.680;26.324;2023-11-21T01:24:29;98378.72;;;10.21;78.65
9740;BME280;4909;42.680;26.324;2023-11-21T01:26:56;98354.69;;;9.86;80.66
9740;BME280;4909;42.680;26.324;2023-11-21T01:29:23;98410.78;;;10.16;81.03
9740;BME280;4909;42.680;26.324;2023-11-21T01:31:50;98402.28;;;10.27;79.58
9740;BME280;4909;42.680;26.324;2023-11-21T01:34:18;98387.97;;;10.31;79.21
9740;BME280;4909;42.680;26.324;2023-11-21T01:36:46;98402.31;;;10.45;78.97
9740;BME280;4909;42.680;26.324;2023-11-21T01:39:13;98380.28;;;10.43;78.35
9740;BME280;4909;42.680;26.324;2023-11-21T01:41:41;98404.34;;;10.58;77.72
9740;BME280;4909;42.680;26.324;2023-11-21T01:44:09;98394.53;;;10.60;77.86
9740;BME280;4909;42.680;26.324;2023-11-21T01:46:36;98353.53;;;10.11;77.72
9740;BME280;4909;42.680;26.324;2023-11-21T01:49:05;98406.13;;;10.01;79.65
9740;BME280;4909;42.680;26.324;2023-11-21T01:51:33;98397.59;;;9.55;82.35
9740;BME280;4909;42.680;26.324;2023-11-21T01:54:00;98388.06;;;9.51;83.44
9740;BME280;4909;42.680;26.324;2023-11-21T01:56:30;98406.38;;;9.76;82.80
9740;BME280;4909;42.680;26.324;2023-11-21T01:58:57;98407.97;;;9.99;81.71
9740;BME280;4909;42.680;26.324;2023-11-21T02:01:24;98398.69;;;10.09;81.01
9740;BME280;4909;42.680;26.324;2023-11-21T02:03:52;98384.50;;;10.10;80.13
9740;BME280;4909;42.680;26.324;2023-11-21T02:06:19;98392.44;;;10.10;80.16
9740;BME280;4909;42.680;26.324;2023-11-21T02:08:49;98385.69;;;10.03;81.39
9740;BME280;4909;42.680;26.324;2023-11-21T02:11:16;98388.53;;;10.19;80.67
9740;BME280;4909;42.680;26.324;2023-11-21T02:13:44;98368.19;;;10.19;80.01
9740;BME280;4909;42.680;26.324;2023-11-21T02:16:12;98386.69;;;10.39;78.93
9740;BME280;4909;42.680;26.324;2023-11-21T02:18:40;98378.56;;;10.42;78.37
9740;BME280;4909;42.680;26.324;2023-11-21T02:21:07;98397.06;;;10.44;78.80
9740;BME280;4909;42.680;26.324;2023-11-21T02:23:37;98393.84;;;10.37;77.82
9740;BME280;4909;42.680;26.324;2023-11-21T02:26:07;98397.56;;;10.33;77.60
9740;BME280;4909;42.680;26.324;2023-11-21T02:28:35;98383.81;;;10.25;77.67
9740;BME280;4909;42.680;26.324;2023-11-21T02:31:01;98404.56;;;10.53;76.48
9740;BME280;4909;42.680;26.324;2023-11-21T02:33:30;98375.47;;;10.33;76.64
9740;BME280;4909;42.680;26.324;2023-11-21T02:35:59;98391.13;;;10.39;76.04
9740;BME280;4909;42.680;26.324;2023-11-21T02:38:26;98408.88;;;10.37;77.45
9740;BME280;4909;42.680;26.324;2023-11-21T02:40:57;98325.81;;;9.80;76.86
9740;BME280;4909;42.680;26.324;2023-11-21T02:43:24;98350.03;;;10.10;76.46
9740;BME280;4909;42.680;26.324;2023-11-21T02:45:51;98407.81;;;10.60;75.62
9740;BME280;4909;42.680;26.324;2023-11-21T02:48:18;98405.19;;;10.77;74.80
9740;BME280;4909;42.680;26.324;2023-11-21T02:50:45;98407.03;;;10.75;74.61
9740;BME280;4909;42.680;26.324;2023-11-21T02:53:12;98413.31;;;10.74;74.71
9740;BME280;4909;42.680;26.324;2023-11-21T02:55:39;98364.94;;;10.50;74.34
9740;BME280;4909;42.680;26.324;2023-11-21T02:58:07;98383.28;;;10.55;74.29
9740;BME280;4909;42.680;26.324;2023-11-21T03:00:34;98422.31;;;10.70;75.15
9740;BME280;4909;42.680;26.324;2023-11-21T03:03:01;98405.69;;;10.66;74.88
9740;BME280;4909;42.680;26.324;2023-11-21T03:05:29;98419.25;;;10.79;74.46
9740;BME280;4909;42.680;26.324;2023-11-21T03:07:56;98367.19;;;10.40;73.98
9740;BME280;4909;42.680;26.324;2023-11-21T03:10:23;98422.78;;;10.79;74.34
9740;BME280;4909;42.680;26.324;2023-11-21T03:12:50;98437.09;;;10.75;74.57
9740;BME280;4909;42.680;26.324;2023-11-21T03:15:19;98388.03;;;10.48;74.77
9740;BME280;4909;42.680;26.324;2023-11-21T03:17:46;98431.94;;;10.72;74.61
9740;BME280;4909;42.680;26.324;2023-11-21T03:20:14;98405.38;;;10.55;73.82
9740;BME280;4909;42.680;26.324;2023-11-21T03:22:41;98428.63;;;10.50;74.57
9740;BME280;4909;42.680;26.324;2023-11-21T03:25:09;98437.34;;;10.52;75.16
9740;BME280;4909;42.680;26.324;2023-11-21T03:27:37;98407.75;;;10.24;76.22
9740;BME280;4909;42.680;26.324;2023-11-21T03:30:05;98438.94;;;10.37;76.83
9740;BME280;4909;42.680;26.324;2023-11-21T03:32:35;98386.22;;;10.11;76.39
9740;BME280;4909;42.680;26.324;2023-11-21T03:35:02;98422.03;;;10.21;76.73
9740;BME280;4909;42.680;26.324;2023-11-21T03:37:29;98425.13;;;10.11;78.36
9740;BME280;4909;42.680;26.324;2023-11-21T03:39:56;98378.13;;;9.95;77.68
9740;BME280;4909;42.680;26.324;2023-11-21T03:42:23;98428.13;;;10.03;78.62
9740;BME280;4909;42.680;26.324;2023-11-21T03:44:51;98423.91;;;9.99;79.11
9740;BME280;4909;42.680;26.324;2023-11-21T03:47:18;98344.84;;;9.70;77.50
9740;BME280;4909;42.680;26.324;2023-11-21T03:49:47;98382.81;;;10.08;77.27
9740;BME280;4909;42.680;26.324;2023-11-21T03:52:14;98401.38;;;10.08;77.37
9740;BME280;4909;42.680;26.324;2023-11-21T03:54:41;98426.22;;;10.07;78.13
9740;BME280;4909;42.680;26.324;2023-11-21T03:57:08;98416.34;;;9.90;79.12
9740;BME280;4909;42.680;26.324;2023-11-21T03:59:35;98425.34;;;10.06;78.32
9740;BME280;4909;42.680;26.324;2023-11-21T04:02:02;98443.97;;;10.25;77.84
9740;BME280;4909;42.680;26.324;2023-11-21T04:04:29;98448.56;;;10.21;77.56
9740;BME280;4909;42.680;26.324;2023-11-21T04:06:58;98451.44;;;10.15;77.71
9740;BME280;4909;42.680;26.324;2023-11-21T04:09:24;98426.91;;;9.91;78.06
9740;BME280;4909;42.680;26.324;2023-11-21T04:11:52;98438.25;;;9.75;78.88
9740;BME280;4909;42.680;26.324;2023-11-21T04:14:21;98458.78;;;9.70;80.11
9740;BME280;4909;42.680;26.324;2023-11-21T04:16:48;98453.75;;;9.64;80.87
9740;BME280;4909;42.680;26.324;2023-11-21T04:19:15;98455.81;;;9.77;80.48
9740;BME280;4909;42.680;26.324;2023-11-21T04:21:42;98457.03;;;9.89;79.26
9740;BME280;4909;42.680;26.324;2023-11-21T04:24:11;98403.22;;;9.68;78.64
9740;BME280;4909;42.680;26.324;2023-11-21T04:26:38;98437.38;;;9.74;78.71
9740;BME280;4909;42.680;26.324;2023-11-21T04:29:05;98422.81;;;9.64;79.43
9740;BME280;4909;42.680;26.324;2023-11-21T04:31:32;98450.09;;;9.86;79.73
9740;BME280;4909;42.680;26.324;2023-11-21T04:33:59;98446.97;;;9.97;78.32
9740;BME280;4909;42.680;26.324;2023-11-21T04:36:25;98447.50;;;9.85;79.00
9740;BME280;4909;42.680;26.324;2023-11-21T04:38:52;98447.13;;;9.74;80.32
9740;BME280;4909;42.680;26.324;2023-11-21T04:41:21;98435.94;;;9.87;79.27
9740;BME280;4909;42.680;26.324;2023-11-21T04:43:48;98388.09;;;9.70;78.22
9740;BME280;4909;42.680;26.324;2023-11-21T04:46:15;98446.78;;;10.01;77.86
9740;BME280;4909;42.680;26.324;2023-11-21T04:48:42;98438.13;;;9.78;78.77
9740;BME280;4909;42.680;26.324;2023-11-21T04:51:09;98444.06;;;9.83;79.66
9740;BME280;4909;42.680;26.324;2023-11-21T04:53:37;98362.56;;;9.49;78.67
9740;BME280;4909;42.680;26.324;2023-11-21T04:56:05;98456.81;;;10.14;77.65
9740;BME280;4909;42.680;26.324;2023-11-21T04:58:33;98439.97;;;10.15;77.05
9740;BME280;4909;42.680;26.324;2023-11-21T05:01:00;98434.88;;;10.10;76.82
9740;BME280;4909;42.680;26.324;2023-11-21T05:03:28;98460.31;;;10.14;76.98
9740;BME280;4909;42.680;26.324;2023-11-21T05:05:55;98450.47;;;9.97;78.19
9740;BME280;4909;42.680;26.324;2023-11-21T05:08:22;98434.91;;;9.90;78.70
9740;BME280;4909;42.680;26.324;2023-11-21T05:10:49;98464.03;;;10.10;77.99
9740;BME280;4909;42.680;26.324;2023-11-21T05:13:17;98443.25;;;10.01;78.00
9740;BME280;4909;42.680;26.324;2023-11-21T05:15:45;98445.09;;;9.99;78.01
9740;BME280;4909;42.680;26.324;2023-11-21T05:18:12;98445.97;;;10.20;77.00
9740;BME280;4909;42.680;26.324;2023-11-21T05:20:40;98461.22;;;10.33;76.47
9740;BME280;4909;42.680;26.324;2023-11-21T05:23:07;98462.44;;;10.26;76.45
9740;BME280;4909;42.680;26.324;2023-11-21T05:25:34;98449.97;;;10.08;77.15
9740;BME280;4909;42.680;26.324;2023-11-21T05:28:01;98402.88;;;9.76;77.16
9740;BME280;4909;42.680;26.324;2023-11-21T05:30:29;98471.47;;;10.22;76.60
9740;BME280;4909;42.680;26.324;2023-11-21T05:32:57;98414.56;;;9.90;76.49
9740;BME280;4909;42.680;26.324;2023-11-21T05:35:24;98450.25;;;10.22;76.29
9740;BME280;4909;42.680;26.324;2023-11-21T05:37:52;98474.34;;;10.36;75.99
9740;BME280;4909;42.680;26.324;2023-11-21T05:40:19;98439.31;;;10.30;75.13
9740;BME280;4909;42.680;26.324;2023-11-21T05:42:48;98474.38;;;10.55;76.03
9740;BME280;4909;42.680;26.324;2023-11-21T05:45:16;98462.16;;;10.51;74.83
9740;BME280;4909;42.680;26.324;2023-11-21T05:47:45;98469.19;;;10.52;74.87
9740;BME280;4909;42.680;26.324;2023-11-21T05:50:15;98465.81;;;10.67;74.52
9740;BME280;4909;42.680;26.324;2023-11-21T05:52:43;98437.50;;;10.68;73.77
9740;BME280;4909;42.680;26.324;2023-11-21T05:55:12;98444.03;;;10.97;73.62
9740;BME280;4909;42.680;26.324;2023-11-21T05:57:41;98460.31;;;11.25;72.02
9740;BME280;4909;42.680;26.324;2023-11-21T06:00:10;98418.75;;;11.07;72.11
9740;BME280;4909;42.680;26.324;2023-11-21T06:02:41;98405.84;;;10.99;71.90
9740;BME280;4909;42.680;26.324;2023-11-21T06:05:08;98467.91;;;11.50;71.19
9740;BME280;4909;42.680;26.324;2023-11-21T06:07:37;98468.38;;;11.58;70.55
9740;BME280;4909;42.680;26.324;2023-11-21T06:10:07;98441.50;;;11.29;69.98
9740;BME280;4909;42.680;26.324;2023-11-21T06:12:35;98490.97;;;11.32;70.66
9740;BME280;4909;42.680;26.324;2023-11-21T06:15:02;98438.03;;;10.93;70.60
9740;BME280;4909;42.680;26.324;2023-11-21T06:17:31;98463.38;;;11.17;70.90
9740;BME280;4909;42.680;26.324;2023-11-21T06:19:58;98421.53;;;11.04;70.67
9740;BME280;4909;42.680;26.324;2023-11-21T06:22:26;98429.31;;;11.08;70.42
9740;BME280;4909;42.680;26.324;2023-11-21T06:24:54;98493.22;;;11.22;70.25
9740;BME280;4909;42.680;26.324;2023-11-21T06:27:21;98476.94;;;11.11;70.76
9740;BME280;4909;42.680;26.324;2023-11-21T06:29:50;98464.94;;;11.21;71.29
9740;BME280;4909;42.680;26.324;2023-11-21T06:32:17;98484.78;;;11.49;70.77
9740;BME280;4909;42.680;26.324;2023-11-21T06:34:46;98471.44;;;11.50;69.96
9740;BME280;4909;42.680;26.324;2023-11-21T06:37:12;98480.03;;;11.55;69.91
9740;BME280;4909;42.680;26.324;2023-11-21T06:39:39;98437.66;;;11.18;70.57
9740;BME280;4909;42.680;26.324;2023-11-21T06:42:08;98485.66;;;11.49;70.92
9740;BME280;4909;42.680;26.324;2023-11-21T06:44:36;98483.00;;;11.32;72.54
9740;BME280;4909;42.680;26.324;2023-11-21T06:47:03;98482.13;;;11.49;72.57
9740;BME280;4909;42.680;26.324;2023-11-21T06:49:32;98484.91;;;11.47;72.84
9740;BME280;4909;42.680;26.324;2023-11-21T06:51:59;98488.94;;;11.37;73.74
9740;BME280;4909;42.680;26.324;2023-11-21T06:54:30;98471.41;;;11.16;74.94
9740;BME280;4909;42.680;26.324;2023-11-21T06:56:58;98478.16;;;11.40;74.72
9740;BME280;4909;42.680;26.324;2023-11-21T06:59:28;98461.19;;;11.60;72.69
9740;BME280;4909;42.680;26.324;2023-11-21T07:01:55;98470.44;;;11.87;72.49
9740;BME280;4909;42.680;26.324;2023-11-21T07:04:22;98459.16;;;11.82;71.98
9740;BME280;4909;42.680;26.324;2023-11-21T07:06:49;98477.84;;;11.63;72.17
9740;BME280;4909;42.680;26.324;2023-11-21T07:09:16;98483.16;;;11.46;73.79
9740;BME280;4909;42.680;26.324;2023-11-21T07:11:45;98451.53;;;11.42;73.61
9740;BME280;4909;42.680;26.324;2023-11-21T07:14:13;98466.34;;;11.63;73.24
9740;BME280;4909;42.680;26.324;2023-11-21T07:16:41;98471.78;;;11.79;73.24
9740;BME280;4909;42.680;26.324;2023-11-21T07:19:08;98459.84;;;12.03;72.12
9740;BME280;4909;42.680;26.324;2023-11-21T07:21:36;98447.97;;;11.93;71.86
9740;BME280;4909;42.680;26.324;2023-11-21T07:24:03;98445.44;;;11.74;72.21
9740;BME280;4909;42.680;26.324;2023-11-21T07:26:31;98462.34;;;11.71;72.65
9740;BME280;4909;42.680;26.324;2023-11-21T07:28:59;98455.59;;;11.83;73.04
9740;BME280;4909;42.680;26.324;2023-11-21T07:31:26;98435.06;;;12.02;71.88
9740;BME280;4909;42.680;26.324;2023-11-21T07:33:55;98478.31;;;12.54;70.58
9740;BME280;4909;42.680;26.324;2023-11-21T07:36:23;98474.78;;;12.54;69.63
9740;BME280;4909;42.680;26.324;2023-11-21T07:38:50;98480.13;;;12.38;69.25
9740;BME280;4909;42.680;26.324;2023-11-21T07:41:18;98491.28;;;12.45;69.14
9740;BME280;4909;42.680;26.324;2023-11-21T07:43:45;98500.22;;;12.44;69.62
9740;BME280;4909;42.680;26.324;2023-11-21T07:46:12;98496.59;;;12.45;69.84
9740;BME280;4909;42.680;26.324;2023-11-21T07:48:40;98464.59;;;12.13;70.27
9740;BME280;4909;42.680;26.324;2023-11-21T07:51:09;98454.72;;;12.64;70.24
9740;BME280;4909;42.680;26.324;2023-11-21T07:53:36;98505.47;;;13.99;65.62
9740;BME280;4909;42.680;26.324;2023-11-21T07:56:04;98474.63;;;14.80;61.85
9740;BME280;4909;42.680;26.324;2023-11-21T07:58:32;98511.56;;;15.95;58.15
9740;BME280;4909;42.680;26.324;2023-11-21T08:00:59;98498.38;;;16.93;54.91
9740;BME280;4909;42.680;26.324;2023-11-21T08:03:26;98503.22;;;17.96;50.39
9740;BME280;4909;42.680;26.324;2023-11-21T08:05:54;98510.56;;;18.62;47.61
9740;BME280;4909;42.680;26.324;2023-11-21T08:08:23;98517.28;;;19.12;46.19
9740;BME280;4909;42.680;26.324;2023-11-21T08:10:50;98448.06;;;19.03;46.88
9740;BME280;4909;42.680;26.324;2023-11-21T08:13:22;98512.94;;;19.86;43.70
9740;BME280;4909;42.680;26.324;2023-11-21T08:15:49;98505.97;;;19.40;45.27
9740;BME280;4909;42.680;26.324;2023-11-21T08:18:16;98496.75;;;19.11;45.76
9740;BME280;4909;42.680;26.324;2023-11-21T08:20:43;98502.09;;;19.22;45.48
9740;BME280;4909;42.680;26.324;2023-11-21T08:23:14;98488.56;;;19.01;46.31
9740;BME280;4909;42.680;26.324;2023-11-21T08:25:44;98474.47;;;18.20;47.61
9740;BME280;4909;42.680;26.324;2023-11-21T08:28:11;98468.97;;;18.10;48.23
9740;BME280;4909;42.680;26.324;2023-11-21T08:30:38;98450.28;;;18.31;48.07
9740;BME280;4909;42.680;26.324;2023-11-21T08:33:07;98473.88;;;18.50;47.48
9740;BME280;4909;42.680;26.324;2023-11-21T08:35:34;98484.19;;;18.67;47.77
9740;BME280;4909;42.680;26.324;2023-11-21T08:38:02;98483.59;;;18.63;47.14
9740;BME280;4909;42.680;26.324;2023-11-21T08:40:30;98373.59;;;18.27;46.19
9740;BME280;4909;42.680;26.324;2023-11-21T08:42:58;98482.63;;;19.30;45.08
9740;BME280;4909;42.680;26.324;2023-11-21T08:45:25;98483.84;;;19.48;43.28
9740;BME280;4909;42.680;26.324;2023-11-21T08:47:52;98483.72;;;19.38;44.09
9740;BME280;4909;42.680;26.324;2023-11-21T08:50:19;98474.78;;;19.38;44.24
9740;BME280;4909;42.680;26.324;2023-11-21T08:52:47;98462.72;;;19.21;44.97
9740;BME280;4909;42.680;26.324;2023-11-21T08:55:15;98440.63;;;19.06;44.27
9740;BME280;4909;42.680;26.324;2023-11-21T08:57:43;98470.50;;;19.35;44.68
9740;BME280;4909;42.680;26.324;2023-11-21T09:00:12;98435.47;;;19.15;43.56
9740;BME280;4909;42.680;26.324;2023-11-21T09:02:42;98451.13;;;19.52;43.55
9740;BME280;4909;42.680;26.324;2023-11-21T09:05:10;98439.47;;;19.20;43.02
9740;BME280;4909;42.680;26.324;2023-11-21T09:07:38;98393.13;;;18.40;44.45
9740;BME280;4909;42.680;26.324;2023-11-21T09:10:06;98447.88;;;18.39;45.85
9740;BME280;4909;42.680;26.324;2023-11-21T09:12:34;98439.41;;;18.10;47.55
9740;BME280;4909;42.680;26.324;2023-11-21T09:15:03;98411.19;;;18.05;46.96
9740;BME280;4909;42.680;26.324;2023-11-21T09:17:32;98426.44;;;17.93;46.70
9740;BME280;4909;42.680;26.324;2023-11-21T09:19:59;98424.47;;;17.84;47.22
9740;BME280;4909;42.680;26.324;2023-11-21T09:22:26;98356.00;;;17.44;47.57
9740;BME280;4909;42.680;26.324;2023-11-21T09:24:55;98416.88;;;17.67;47.79
9740;BME280;4909;42.680;26.324;2023-11-21T09:27:23;98425.81;;;17.55;47.12
9740;BME280;4909;42.680;26.324;2023-11-21T09:29:51;98412.47;;;17.42;47.58
9740;BME280;4909;42.680;26.324;2023-11-21T09:32:18;98408.53;;;17.35;48.42
9740;BME280;4909;42.680;26.324;2023-11-21T09:34:48;98403.91;;;17.37;49.08
9740;BME280;4909;42.680;26.324;2023-11-21T09:37:15;98402.13;;;17.25;49.73
9740;BME280;4909;42.680;26.324;2023-11-21T09:39:42;98397.13;;;16.97;50.09
9740;BME280;4909;42.680;26.324;2023-11-21T09:42:10;98338.31;;;16.59;50.76
9740;BME280;4909;42.680;26.324;2023-11-21T09:44:45;98403.28;;;16.86;51.86
9740;BME280;4909;42.680;26.324;2023-11-21T09:47:15;98369.56;;;16.71;51.38
9740;BME280;4909;42.680;26.324;2023-11-21T09:49:46;98382.59;;;16.88;50.56
9740;BME280;4909;42.680;26.324;2023-11-21T09:52:20;98382.69;;;16.63;51.45
9740;BME280;4909;42.680;26.324;2023-11-21T09:54:50;98389.41;;;16.68;51.94
9740;BME280;4909;42.680;26.324;2023-11-21T09:57:19;98379.66;;;16.67;51.81
9740;BME280;4909;42.680;26.324;2023-11-21T09:59:51;98381.91;;;16.61;52.98
9740;BME280;4909;42.680;26.324;2023-11-21T10:02:22;98337.75;;;16.66;51.78
9740;BME280;4909;42.680;26.324;2023-11-21T10:04:53;98363.06;;;16.86;51.17
9740;BME280;4909;42.680;26.324;2023-11-21T10:07:23;98373.97;;;16.72;52.14
9740;BME280;4909;42.680;26.324;2023-11-21T10:09:51;98348.25;;;16.57;52.42
9740;BME280;4909;42.680;26.324;2023-11-21T10:12:18;98363.34;;;16.70;52.07
9740;BME280;4909;42.680;26.324;2023-11-21T10:14:48;98365.75;;;16.62;51.45
9740;BME280;4909;42.680;26.324;2023-11-21T10:17:18;98327.22;;;16.39;52.77
9740;BME280;4909;42.680;26.324;2023-11-21T10:19:46;98310.97;;;16.30;52.31
9740;BME280;4909;42.680;26.324;2023-11-21T10:22:14;98314.03;;;16.36;51.82
9740;BME280;4909;42.680;26.324;2023-11-21T10:24:43;98333.28;;;16.54;52.16
9740;BME280;4909;42.680;26.324;2023-11-21T10:27:11;98349.03;;;16.59;51.84
9740;BME280;4909;42.680;26.324;2023-11-21T10:29:39;98335.94;;;16.54;52.16
9740;BME280;4909;42.680;26.324;2023-11-21T10:32:07;98338.84;;;16.64;51.82
9740;BME280;4909;42.680;26.324;2023-11-21T10:34:34;98324.06;;;16.58;52.64
9740;BME280;4909;42.680;26.324;2023-11-21T10:37:11;98321.66;;;16.90;51.96
9740;BME280;4909;42.680;26.324;2023-11-21T10:39:39;98271.50;;;16.68;51.48
9740;BME280;4909;42.680;26.324;2023-11-21T10:42:08;98335.53;;;17.08;50.27
9740;BME280;4909;42.680;26.324;2023-11-21T10:44:35;98329.19;;;17.09;50.24
9740;BME280;4909;42.680;26.324;2023-11-21T10:47:03;98298.91;;;16.95;50.05
9740;BME280;4909;42.680;26.324;2023-11-21T10:49:30;98235.66;;;16.58;50.45
9740;BME280;4909;42.680;26.324;2023-11-21T10:51:57;98297.16;;;16.83;51.12
9740;BME280;4909;42.680;26.324;2023-11-21T10:54:25;98322.00;;;16.85;51.81
9740;BME280;4909;42.680;26.324;2023-11-21T10:56:56;98249.44;;;16.41;52.08
9740;BME280;4909;42.680;26.324;2023-11-21T10:59:28;98253.94;;;16.40;52.65
9740;BME280;4909;42.680;26.324;2023-11-21T11:01:54;98307.09;;;16.58;54.11
9740;BME280;4909;42.680;26.324;2023-11-21T11:04:25;98281.84;;;16.25;54.47
9740;BME280;4909;42.680;26.324;2023-11-21T11:06:55;98302.47;;;16.36;54.56
9740;BME280;4909;42.680;26.324;2023-11-21T11:09:24;98268.38;;;16.38;54.72
9740;BME280;4909;42.680;26.324;2023-11-21T11:11:51;98240.81;;;16.25;54.69
9740;BME280;4909;42.680;26.324;2023-11-21T11:14:20;98281.34;;;16.44;55.58
9740;BME280;4909;42.680;26.324;2023-11-21T11:16:53;98258.69;;;16.48;55.04
9740;BME280;4909;42.680;26.324;2023-11-21T11:19:21;98279.13;;;16.62;55.16
9740;BME280;4909;42.680;26.324;2023-11-21T11:21:53;98281.47;;;16.66;55.53
9740;BME280;4909;42.680;26.324;2023-11-21T11:24:41;98262.25;;;16.48;56.56
9740;BME280;4909;42.680;26.324;2023-11-21T11:27:16;98270.38;;;16.47;56.80
9740;BME280;4909;42.680;26.324;2023-11-21T11:29:54;98275.22;;;16.42;57.38
9740;BME280;4909;42.680;26.324;2023-11-21T11:32:31;98220.53;;;16.33;57.23
9740;BME280;4909;42.680;26.324;2023-11-21T11:35:06;98263.72;;;16.65;57.70
9740;BME280;4909;42.680;26.324;2023-11-21T11:37:37;98260.53;;;16.71;57.98
9740;BME280;4909;42.680;26.324;2023-11-21T11:40:06;98222.69;;;16.76;57.21
9740;BME280;4909;42.680;26.324;2023-11-21T11:42:34;98257.63;;;17.09;57.17
9740;BME280;4909;42.680;26.324;2023-11-21T11:45:01;98240.06;;;16.70;59.05
9740;BME280;4909;42.680;26.324;2023-11-21T11:47:32;98245.59;;;16.80;58.77
9740;BME280;4909;42.680;26.324;2023-11-21T11:50:06;98222.53;;;16.66;60.87
9740;BME280;4909;42.680;26.324;2023-11-21T11:52:40;98220.00;;;16.76;61.12
9740;BME280;4909;42.680;26.324;2023-11-21T11:55:08;98235.72;;;16.80;61.73
9740;BME280;4909;42.680;26.324;2023-11-21T11:57:39;98226.38;;;16.86;61.68
9740;BME280;4909;42.680;26.324;2023-11-21T12:00:10;98208.66;;;16.72;61.34
9740;BME280;4909;42.680;26.324;2023-11-21T12:02:44;98222.63;;;16.88;61.50
9740;BME280;4909;42.680;26.324;2023-11-21T12:05:14;98207.38;;;16.89;60.97
9740;BME280;4909;42.680;26.324;2023-11-21T12:07:43;98222.13;;;16.83;59.46
9740;BME280;4909;42.680;26.324;2023-11-21T12:10:12;98180.97;;;16.61;59.20
9740;BME280;4909;42.680;26.324;2023-11-21T12:12:44;98213.69;;;16.77;59.77
9740;BME280;4909;42.680;26.324;2023-11-21T12:15:12;98179.28;;;16.60;60.51
9740;BME280;4909;42.680;26.324;2023-11-21T12:17:40;98204.56;;;16.90;59.59
9740;BME280;4909;42.680;26.324;2023-11-21T12:20:11;98201.72;;;16.70;59.97
9740;BME280;4909;42.680;26.324;2023-11-21T12:22:45;98208.78;;;16.71;60.19
9740;BME280;4909;42.680;26.324;2023-11-21T12:25:14;98207.91;;;16.70;60.72
9740;BME280;4909;42.680;26.324;2023-11-21T12:27:44;98217.81;;;16.81;60.20
9740;BME280;4909;42.680;26.324;2023-11-21T12:30:12;98183.31;;;16.65;60.33
9740;BME280;4909;42.680;26.324;2023-11-21T12:32:42;98170.19;;;16.49;60.67
9740;BME280;4909;42.680;26.324;2023-11-21T12:35:11;98152.59;;;16.34;60.29
9740;BME280;4909;42.680;26.324;2023-11-21T12:37:39;98171.25;;;16.47;60.57
9740;BME280;4909;42.680;26.324;2023-11-21T12:40:09;98123.78;;;16.14;61.32
9740;BME280;4909;42.680;26.324;2023-11-21T12:42:37;98175.22;;;16.54;61.14
9740;BME280;4909;42.680;26.324;2023-11-21T12:45:10;98169.44;;;16.47;61.51
9740;BME280;4909;42.680;26.324;2023-11-21T12:47:41;98210.28;;;16.75;61.46
9740;BME280;4909;42.680;26.324;2023-11-21T12:50:10;98189.00;;;16.61;61.80
9740;BME280;4909;42.680;26.324;2023-11-21T12:52:41;98154.22;;;16.48;62.01
9740;BME280;4909;42.680;26.324;2023-11-21T12:55:09;98189.50;;;16.66;62.29
9740;BME280;4909;42.680;26.324;2023-11-21T12:57:42;98172.28;;;16.57;62.10
9740;BME280;4909;42.680;26.324;2023-11-21T13:00:11;98171.50;;;16.44;62.52
9740;BME280;4909;42.680;26.324;2023-11-21T13:02:41;98184.66;;;16.47;62.37
9740;BME280;4909;42.680;26.324;2023-11-21T13:05:09;98197.25;;;16.58;62.55
9740;BME280;4909;42.680;26.324;2023-11-21T13:07:48;98170.91;;;16.40;62.65
9740;BME280;4909;42.680;26.324;2023-11-21T13:10:20;98191.69;;;16.61;62.61
9740;BME280;4909;42.680;26.324;2023-11-21T13:12:51;98177.38;;;16.49;62.46
9740;BME280;4909;42.680;26.324;2023-11-21T13:15:20;98172.06;;;16.36;62.30
9740;BME280;4909;42.680;26.324;2023-11-21T13:17:47;98151.34;;;16.27;62.08